sensor_id;sensor_type;location;lat;lon;timestamp;pressure;altitude;pressure_sealevel;temperature
79714;BMP280;69206;51.420;5.400;2023-04-24T00:00:27;100004.72;;;10.18
79714;BMP280;69206;51.420;5.400;2023-04-24T00:02:52;100000.00;;;10.22
79714;BMP280;69206;51.420;5.400;2023-04-24T00:05:22;100005.09;;;10.23
79714;BMP280;69206;51.420;5.400;2023-04-24T00:07:47;100003.53;;;10.13
79714;BMP280;69206;51.420;5.400;2023-04-24T00:10:13;100007.31;;;10.10
79714;BMP280;69206;51.420;5.400;2023-04-24T00:12:38;99985.06;;;9.97
79714;BMP280;69206;51.420;5.400;2023-04-24T00:15:04;100012.06;;;10.15
79714;BMP280;69206;51.420;5.400;2023-04-24T00:17:30;99984.78;;;10.00
79714;BMP280;69206;51.420;5.400;2023-04-24T00:19:55;100014.03;;;10.21
79714;BMP280;69206;51.420;5.400;2023-04-24T00:22:24;100005.41;;;10.20
79714;BMP280;69206;51.420;5.400;2023-04-24T00:24:50;99993.03;;;10.13
79714;BMP280;69206;51.420;5.400;2023-04-24T00:27:15;99995.47;;;10.06
79714;BMP280;69206;51.420;5.400;2023-04-24T00:29:40;100011.94;;;10.16
79714;BMP280;69206;51.420;5.400;2023-04-24T00:32:06;100019.72;;;10.08
79714;BMP280;69206;51.420;5.400;2023-04-24T00:34:31;100015.81;;;10.12
79714;BMP280;69206;51.420;5.400;2023-04-24T00:36:57;100016.16;;;10.09
79714;BMP280;69206;51.420;5.400;2023-04-24T00:39:23;100025.81;;;10.09
79714;BMP280;69206;51.420;5.400;2023-04-24T00:41:48;100016.94;;;10.10
79714;BMP280;69206;51.420;5.400;2023-04-24T00:44:16;100019.53;;;10.02
79714;BMP280;69206;51.420;5.400;2023-04-24T00:46:42;100019.09;;;9.89
79714;BMP280;69206;51.420;5.400;2023-04-24T00:49:07;100021.16;;;10.03
79714;BMP280;69206;51.420;5.400;2023-04-24T00:51:33;100021.59;;;9.98
79714;BMP280;69206;51.420;5.400;2023-04-24T00:54:00;100017.81;;;9.93
79714;BMP280;69206;51.420;5.400;2023-04-24T00:56:26;100020.81;;;9.98
79714;BMP280;69206;51.420;5.400;2023-04-24T00:58:51;100020.94;;;9.96
79714;BMP280;69206;51.420;5.400;2023-04-24T01:01:19;100032.97;;;10.07
79714;BMP280;69206;51.420;5.400;2023-04-24T01:03:46;100023.03;;;10.10
79714;BMP280;69206;51.420;5.400;2023-04-24T01:06:11;99992.59;;;9.92
79714;BMP280;69206;51.420;5.400;2023-04-24T01:08:38;100023.78;;;10.03
79714;BMP280;69206;51.420;5.400;2023-04-24T01:11:04;100010.69;;;10.03
79714;BMP280;69206;51.420;5.400;2023-04-24T01:13:31;99989.84;;;9.76
79714;BMP280;69206;51.420;5.400;2023-04-24T01:15:57;100019.09;;;9.89
79714;BMP280;69206;51.420;5.400;2023-04-24T01:18:22;100014.81;;;9.88
79714;BMP280;69206;51.420;5.400;2023-04-24T01:20:51;100017.22;;;9.81
79714;BMP280;69206;51.420;5.400;2023-04-24T01:23:18;100016.72;;;9.78
79714;BMP280;69206;51.420;5.400;2023-04-24T01:25:44;100003.78;;;9.76
79714;BMP280;69206;51.420;5.400;2023-04-24T01:28:10;99995.03;;;9.68
79714;BMP280;69206;51.420;5.400;2023-04-24T01:30:35;99994.13;;;9.77
79714;BMP280;69206;51.420;5.400;2023-04-24T01:33:01;100023.50;;;9.88
79714;BMP280;69206;51.420;5.400;2023-04-24T01:35:27;100029.28;;;9.92
79714;BMP280;69206;51.420;5.400;2023-04-24T01:37:52;100022.59;;;9.97
79714;BMP280;69206;51.420;5.400;2023-04-24T01:40:18;100034.53;;;9.92
79714;BMP280;69206;51.420;5.400;2023-04-24T01:42:43;100021.88;;;9.87
79714;BMP280;69206;51.420;5.400;2023-04-24T01:45:11;100023.06;;;9.93
79714;BMP280;69206;51.420;5.400;2023-04-24T01:47:36;100027.13;;;9.87
79714;BMP280;69206;51.420;5.400;2023-04-24T01:50:04;100024.88;;;9.92
79714;BMP280;69206;51.420;5.400;2023-04-24T01:52:29;100026.78;;;10.08
79714;BMP280;69206;51.420;5.400;2023-04-24T01:54:59;100022.59;;;9.97
79714;BMP280;69206;51.420;5.400;2023-04-24T01:57:25;100025.63;;;9.85
79714;BMP280;69206;51.420;5.400;2023-04-24T01:59:51;100020.69;;;9.82
79714;BMP280;69206;51.420;5.400;2023-04-24T02:02:16;100027.94;;;9.88
79714;BMP280;69206;51.420;5.400;2023-04-24T02:04:41;100030.91;;;9.93
79714;BMP280;69206;51.420;5.400;2023-04-24T02:07:07;100027.34;;;9.94
79714;BMP280;69206;51.420;5.400;2023-04-24T02:09:33;100020.44;;;9.93
79714;BMP280;69206;51.420;5.400;2023-04-24T02:11:58;100028.44;;;9.91
79714;BMP280;69206;51.420;5.400;2023-04-24T02:14:23;100026.81;;;9.90
79714;BMP280;69206;51.420;5.400;2023-04-24T02:16:49;100036.56;;;10.06
79714;BMP280;69206;51.420;5.400;2023-04-24T02:19:14;100034.66;;;9.90
79714;BMP280;69206;51.420;5.400;2023-04-24T02:21:41;100034.81;;;9.89
79714;BMP280;69206;51.420;5.400;2023-04-24T02:24:06;100022.41;;;9.91
79714;BMP280;69206;51.420;5.400;2023-04-24T02:26:31;100027.63;;;9.91
79714;BMP280;69206;51.420;5.400;2023-04-24T02:28:57;100004.81;;;9.83
79714;BMP280;69206;51.420;5.400;2023-04-24T02:31:22;100037.28;;;9.90
79714;BMP280;69206;51.420;5.400;2023-04-24T02:33:47;100029.56;;;9.89
79714;BMP280;69206;51.420;5.400;2023-04-24T02:36:13;100031.84;;;9.84
79714;BMP280;69206;51.420;5.400;2023-04-24T02:38:39;99998.44;;;9.86
79714;BMP280;69206;51.420;5.400;2023-04-24T02:41:04;100026.03;;;9.98
79714;BMP280;69206;51.420;5.400;2023-04-24T02:43:31;100021.47;;;10.00
79714;BMP280;69206;51.420;5.400;2023-04-24T02:45:57;100017.81;;;9.93
79714;BMP280;69206;51.420;5.400;2023-04-24T02:48:23;100014.25;;;9.94
79714;BMP280;69206;51.420;5.400;2023-04-24T02:50:49;100017.16;;;9.91
79714;BMP280;69206;51.420;5.400;2023-04-24T02:53:15;100019.97;;;9.80
79714;BMP280;69206;51.420;5.400;2023-04-24T02:55:40;100019.97;;;9.80
79714;BMP280;69206;51.420;5.400;2023-04-24T02:58:06;100024.50;;;9.87
79714;BMP280;69206;51.420;5.400;2023-04-24T03:00:31;100012.63;;;9.75
79714;BMP280;69206;51.420;5.400;2023-04-24T03:02:56;99987.22;;;9.76
79714;BMP280;69206;51.420;5.400;2023-04-24T03:05:22;100013.84;;;9.89
79714;BMP280;69206;51.420;5.400;2023-04-24T03:07:47;100014.72;;;9.97
79714;BMP280;69206;51.420;5.400;2023-04-24T03:10:13;100016.16;;;9.92
79714;BMP280;69206;51.420;5.400;2023-04-24T03:12:39;99982.38;;;9.63
79714;BMP280;69206;51.420;5.400;2023-04-24T03:15:05;100015.44;;;9.82
79714;BMP280;69206;51.420;5.400;2023-04-24T03:17:31;100009.22;;;9.83
79714;BMP280;69206;51.420;5.400;2023-04-24T03:19:56;99988.06;;;9.59
79714;BMP280;69206;51.420;5.400;2023-04-24T03:22:22;99995.72;;;9.52
79714;BMP280;69206;51.420;5.400;2023-04-24T03:24:47;100023.38;;;9.72
79714;BMP280;69206;51.420;5.400;2023-04-24T03:27:12;100024.53;;;9.70
79714;BMP280;69206;51.420;5.400;2023-04-24T03:29:38;100017.63;;;9.69
79714;BMP280;69206;51.420;5.400;2023-04-24T03:32:03;100024.19;;;9.73
79714;BMP280;69206;51.420;5.400;2023-04-24T03:34:28;100024.19;;;9.73
79714;BMP280;69206;51.420;5.400;2023-04-24T03:36:54;100027.16;;;9.70
79714;BMP280;69206;51.420;5.400;2023-04-24T03:39:19;100027.50;;;9.75
79714;BMP280;69206;51.420;5.400;2023-04-24T03:41:44;100034.06;;;9.79
79714;BMP280;69206;51.420;5.400;2023-04-24T03:44:10;100020.34;;;9.77
79714;BMP280;69206;51.420;5.400;2023-04-24T03:46:35;100019.22;;;9.62
79714;BMP280;69206;51.420;5.400;2023-04-24T03:49:01;100017.78;;;9.67
79714;BMP280;69206;51.420;5.400;2023-04-24T03:51:26;100012.47;;;9.59
79714;BMP280;69206;51.420;5.400;2023-04-24T03:53:53;100023.16;;;9.66
79714;BMP280;69206;51.420;5.400;2023-04-24T03:56:18;100001.78;;;9.53
79714;BMP280;69206;51.420;5.400;2023-04-24T03:58:45;100021.50;;;9.65
79714;BMP280;69206;51.420;5.400;2023-04-24T04:01:10;100018.09;;;9.64
79714;BMP280;69206;51.420;5.400;2023-04-24T04:03:36;100018.84;;;9.57
79714;BMP280;69206;51.420;5.400;2023-04-24T04:06:02;100012.34;;;9.61
79714;BMP280;69206;51.420;5.400;2023-04-24T04:08:27;100019.88;;;9.64
79714;BMP280;69206;51.420;5.400;2023-04-24T04:10:53;100029.84;;;9.60
79714;BMP280;69206;51.420;5.400;2023-04-24T04:13:18;100022.22;;;9.67
79714;BMP280;69206;51.420;5.400;2023-04-24T04:15:43;100027.69;;;9.56
79714;BMP280;69206;51.420;5.400;2023-04-24T04:18:09;100033.06;;;9.54
79714;BMP280;69206;51.420;5.400;2023-04-24T04:20:35;100001.75;;;9.35
79714;BMP280;69206;51.420;5.400;2023-04-24T04:23:00;100028.22;;;9.42
79714;BMP280;69206;51.420;5.400;2023-04-24T04:25:25;100027.78;;;9.37
79714;BMP280;69206;51.420;5.400;2023-04-24T04:27:51;100002.97;;;9.23
79714;BMP280;69206;51.420;5.400;2023-04-24T04:30:17;100024.34;;;9.36
79714;BMP280;69206;51.420;5.400;2023-04-24T04:32:43;100039.63;;;9.23
79714;BMP280;69206;51.420;5.400;2023-04-24T04:35:09;100031.47;;;9.26
79714;BMP280;69206;51.420;5.400;2023-04-24T04:37:34;100028.94;;;9.34
79714;BMP280;69206;51.420;5.400;2023-04-24T04:40:01;100030.66;;;9.26
79714;BMP280;69206;51.420;5.400;2023-04-24T04:42:31;100041.13;;;9.26
79714;BMP280;69206;51.420;5.400;2023-04-24T04:44:57;100035.19;;;9.24
79714;BMP280;69206;51.420;5.400;2023-04-24T04:47:23;99987.47;;;8.95
79714;BMP280;69206;51.420;5.400;2023-04-24T04:49:49;100043.34;;;9.21
79714;BMP280;69206;51.420;5.400;2023-04-24T04:52:16;100040.44;;;9.24
79714;BMP280;69206;51.420;5.400;2023-04-24T04:54:42;100044.88;;;9.23
79714;BMP280;69206;51.420;5.400;2023-04-24T04:57:07;100050.00;;;9.15
79714;BMP280;69206;51.420;5.400;2023-04-24T04:59:33;100045.53;;;9.25
79714;BMP280;69206;51.420;5.400;2023-04-24T05:01:58;100051.00;;;9.32
79714;BMP280;69206;51.420;5.400;2023-04-24T05:04:23;100053.22;;;9.27
79714;BMP280;69206;51.420;5.400;2023-04-24T05:06:49;100052.09;;;9.29
79714;BMP280;69206;51.420;5.400;2023-04-24T05:09:16;100038.97;;;9.39
79714;BMP280;69206;51.420;5.400;2023-04-24T05:11:41;100061.66;;;9.21
79714;BMP280;69206;51.420;5.400;2023-04-24T05:14:06;100032.00;;;9.03
79714;BMP280;69206;51.420;5.400;2023-04-24T05:16:33;100061.31;;;9.16
79714;BMP280;69206;51.420;5.400;2023-04-24T05:18:59;100070.13;;;9.15
79714;BMP280;69206;51.420;5.400;2023-04-24T05:21:24;100049.13;;;8.97
79714;BMP280;69206;51.420;5.400;2023-04-24T05:23:50;100058.09;;;8.95
79714;BMP280;69206;51.420;5.400;2023-04-24T05:26:15;100076.59;;;9.11
79714;BMP280;69206;51.420;5.400;2023-04-24T05:28:41;100080.47;;;9.07
79714;BMP280;69206;51.420;5.400;2023-04-24T05:31:06;100077.97;;;9.15
79714;BMP280;69206;51.420;5.400;2023-04-24T05:33:32;100093.56;;;9.07
79714;BMP280;69206;51.420;5.400;2023-04-24T05:35:57;100096.00;;;9.18
79714;BMP280;69206;51.420;5.400;2023-04-24T05:38:23;100089.56;;;9.03
79714;BMP280;69206;51.420;5.400;2023-04-24T05:40:48;100096.38;;;8.96
79714;BMP280;69206;51.420;5.400;2023-04-24T05:43:13;100099.97;;;8.95
79714;BMP280;69206;51.420;5.400;2023-04-24T05:45:39;100101.09;;;8.83
79714;BMP280;69206;51.420;5.400;2023-04-24T05:48:04;100099.16;;;8.85
79714;BMP280;69206;51.420;5.400;2023-04-24T05:50:31;100097.25;;;8.87
79714;BMP280;69206;51.420;5.400;2023-04-24T05:52:56;100098.00;;;8.70
79714;BMP280;69206;51.420;5.400;2023-04-24T05:55:25;100096.63;;;8.93
79714;BMP280;69206;51.420;5.400;2023-04-24T05:57:51;100111.28;;;8.86
79714;BMP280;69206;51.420;5.400;2023-04-24T06:00:16;100119.41;;;8.83
79714;BMP280;69206;51.420;5.400;2023-04-24T06:02:43;100121.25;;;8.73
79714;BMP280;69206;51.420;5.400;2023-04-24T06:05:09;100123.44;;;8.68
79714;BMP280;69206;51.420;5.400;2023-04-24T06:07:34;100127.84;;;8.67
79714;BMP280;69206;51.420;5.400;2023-04-24T06:10:00;100133.38;;;8.64
79714;BMP280;69206;51.420;5.400;2023-04-24T06:12:25;100147.22;;;8.74
79714;BMP280;69206;51.420;5.400;2023-04-24T06:14:51;100121.84;;;8.57
79714;BMP280;69206;51.420;5.400;2023-04-24T06:17:16;100130.50;;;8.58
79714;BMP280;69206;51.420;5.400;2023-04-24T06:19:42;100152.09;;;8.69
79714;BMP280;69206;51.420;5.400;2023-04-24T06:22:07;100163.09;;;8.73
79714;BMP280;69206;51.420;5.400;2023-04-24T06:24:33;100160.88;;;8.78
79714;BMP280;69206;51.420;5.400;2023-04-24T06:26:59;100171.22;;;8.70
79714;BMP280;69206;51.420;5.400;2023-04-24T06:29:26;100178.22;;;8.79
79714;BMP280;69206;51.420;5.400;2023-04-24T06:31:51;100183.97;;;8.82
79714;BMP280;69206;51.420;5.400;2023-04-24T06:34:17;100185.53;;;8.75
79714;BMP280;69206;51.420;5.400;2023-04-24T06:36:42;100195.97;;;8.75
79714;BMP280;69206;51.420;5.400;2023-04-24T06:39:08;100179.22;;;8.68
79714;BMP280;69206;51.420;5.400;2023-04-24T06:41:34;100210.97;;;8.73
79714;BMP280;69206;51.420;5.400;2023-04-24T06:43:59;100224.50;;;8.78
79714;BMP280;69206;51.420;5.400;2023-04-24T06:46:25;100219.25;;;8.69
79714;BMP280;69206;51.420;5.400;2023-04-24T06:48:53;100232.97;;;8.80
79714;BMP280;69206;51.420;5.400;2023-04-24T06:51:25;100234.13;;;8.78
79714;BMP280;69206;51.420;5.400;2023-04-24T06:53:54;100259.31;;;8.79
79714;BMP280;69206;51.420;5.400;2023-04-24T06:56:21;100251.59;;;8.68
79714;BMP280;69206;51.420;5.400;2023-04-24T06:58:46;100253.41;;;8.77
79714;BMP280;69206;51.420;5.400;2023-04-24T07:01:12;100272.66;;;8.76
79714;BMP280;69206;51.420;5.400;2023-04-24T07:03:37;100267.16;;;8.79
79714;BMP280;69206;51.420;5.400;2023-04-24T07:06:04;100283.41;;;8.73
79714;BMP280;69206;51.420;5.400;2023-04-24T07:08:29;100307.25;;;8.70
79714;BMP280;69206;51.420;5.400;2023-04-24T07:10:56;100299.09;;;8.73
79714;BMP280;69206;51.420;5.400;2023-04-24T07:13:22;100278.28;;;8.62
79714;BMP280;69206;51.420;5.400;2023-04-24T07:15:48;100284.22;;;8.64
79714;BMP280;69206;51.420;5.400;2023-04-24T07:18:16;100304.63;;;8.70
79714;BMP280;69206;51.420;5.400;2023-04-24T07:20:41;100305.00;;;8.75
79714;BMP280;69206;51.420;5.400;2023-04-24T07:23:06;100325.25;;;8.73
79714;BMP280;69206;51.420;5.400;2023-04-24T07:25:32;100336.00;;;8.70
79714;BMP280;69206;51.420;5.400;2023-04-24T07:27:58;100347.28;;;8.80
79714;BMP280;69206;51.420;5.400;2023-04-24T07:30:23;100342.06;;;8.80
79714;BMP280;69206;51.420;5.400;2023-04-24T07:32:49;100346.31;;;8.71
79714;BMP280;69206;51.420;5.400;2023-04-24T07:35:14;100341.19;;;8.60
79714;BMP280;69206;51.420;5.400;2023-04-24T07:37:40;100374.66;;;8.66
79714;BMP280;69206;51.420;5.400;2023-04-24T07:40:06;100388.56;;;8.67
79714;BMP280;69206;51.420;5.400;2023-04-24T07:42:31;100383.59;;;8.64
79714;BMP280;69206;51.420;5.400;2023-04-24T07:44:59;100394.06;;;8.64
79714;BMP280;69206;51.420;5.400;2023-04-24T07:47:25;100407.84;;;8.66
79714;BMP280;69206;51.420;5.400;2023-04-24T07:49:50;100390.19;;;8.49
79714;BMP280;69206;51.420;5.400;2023-04-24T07:52:16;100425.72;;;8.70
79714;BMP280;69206;51.420;5.400;2023-04-24T07:54:41;100372.28;;;8.44
79714;BMP280;69206;51.420;5.400;2023-04-24T07:57:08;100434.72;;;8.77
79714;BMP280;69206;51.420;5.400;2023-04-24T07:59:34;100422.13;;;8.62
79714;BMP280;69206;51.420;5.400;2023-04-24T08:01:59;100445.03;;;8.79
79714;BMP280;69206;51.420;5.400;2023-04-24T08:04:26;100439.50;;;8.72
79714;BMP280;69206;51.420;5.400;2023-04-24T08:06:51;100454.97;;;8.85
79714;BMP280;69206;51.420;5.400;2023-04-24T08:09:17;100453.31;;;8.84
79714;BMP280;69206;51.420;5.400;2023-04-24T08:11:43;100455.69;;;8.87
79714;BMP280;69206;51.420;5.400;2023-04-24T08:14:08;100461.59;;;8.89
79714;BMP280;69206;51.420;5.400;2023-04-24T08:16:34;100472.31;;;8.86
79714;BMP280;69206;51.420;5.400;2023-04-24T08:19:00;100438.66;;;8.72
79714;BMP280;69206;51.420;5.400;2023-04-24T08:21:25;100483.63;;;8.96
79714;BMP280;69206;51.420;5.400;2023-04-24T08:23:52;100485.25;;;8.78
79714;BMP280;69206;51.420;5.400;2023-04-24T08:26:17;100495.19;;;8.84
79714;BMP280;69206;51.420;5.400;2023-04-24T08:28:43;100493.16;;;8.97
79714;BMP280;69206;51.420;5.400;2023-04-24T08:31:08;100505.13;;;8.99
79714;BMP280;69206;51.420;5.400;2023-04-24T08:33:34;100500.19;;;9.06
79714;BMP280;69206;51.420;5.400;2023-04-24T08:36:04;100503.47;;;9.08
79714;BMP280;69206;51.420;5.400;2023-04-24T08:38:30;100508.22;;;9.23
79714;BMP280;69206;51.420;5.400;2023-04-24T08:40:57;100486.41;;;9.13
79714;BMP280;69206;51.420;5.400;2023-04-24T08:43:23;100515.63;;;9.28
79714;BMP280;69206;51.420;5.400;2023-04-24T08:45:48;100531.66;;;9.25
79714;BMP280;69206;51.420;5.400;2023-04-24T08:48:14;100486.66;;;9.01
79714;BMP280;69206;51.420;5.400;2023-04-24T08:50:40;100530.56;;;9.56
79714;BMP280;69206;51.420;5.400;2023-04-24T08:53:08;100512.66;;;9.51
79714;BMP280;69206;51.420;5.400;2023-04-24T08:55:34;100538.66;;;9.62
79714;BMP280;69206;51.420;5.400;2023-04-24T08:58:00;100539.34;;;9.55
79714;BMP280;69206;51.420;5.400;2023-04-24T09:00:26;100557.56;;;9.47
79714;BMP280;69206;51.420;5.400;2023-04-24T09:02:53;100556.19;;;9.33
79714;BMP280;69206;51.420;5.400;2023-04-24T09:05:20;100558.06;;;9.22
79714;BMP280;69206;51.420;5.400;2023-04-24T09:07:49;100564.13;;;9.22
79714;BMP280;69206;51.420;5.400;2023-04-24T09:10:17;100567.72;;;9.31
79714;BMP280;69206;51.420;5.400;2023-04-24T09:12:44;100578.19;;;9.31
79714;BMP280;69206;51.420;5.400;2023-04-24T09:15:10;100579.59;;;9.25
79714;BMP280;69206;51.420;5.400;2023-04-24T09:17:36;100588.41;;;9.34
79714;BMP280;69206;51.420;5.400;2023-04-24T09:20:02;100586.38;;;9.47
79714;BMP280;69206;51.420;5.400;2023-04-24T09:22:30;100579.78;;;9.62
79714;BMP280;69206;51.420;5.400;2023-04-24T09:25:03;100590.81;;;9.75
79714;BMP280;69206;51.420;5.400;2023-04-24T09:27:29;100588.72;;;9.88
79714;BMP280;69206;51.420;5.400;2023-04-24T09:29:56;100607.34;;;10.04
79714;BMP280;69206;51.420;5.400;2023-04-24T09:32:22;100602.91;;;10.14
79714;BMP280;69206;51.420;5.400;2023-04-24T09:35:13;100604.47;;;9.78
79714;BMP280;69206;51.420;5.400;2023-04-24T09:37:45;100618.78;;;9.55
79714;BMP280;69206;51.420;5.400;2023-04-24T09:40:21;100611.34;;;9.60
79714;BMP280;69206;51.420;5.400;2023-04-24T09:42:57;100624.84;;;9.56
79714;BMP280;69206;51.420;5.400;2023-04-24T09:45:36;100607.72;;;9.33
79714;BMP280;69206;51.420;5.400;2023-04-24T09:48:01;100605.25;;;9.41
79714;BMP280;69206;51.420;5.400;2023-04-24T09:50:30;100636.00;;;9.58
79714;BMP280;69206;51.420;5.400;2023-04-24T09:52:58;100644.31;;;9.82
79714;BMP280;69206;51.420;5.400;2023-04-24T09:55:25;100640.28;;;9.97
79714;BMP280;69206;51.420;5.400;2023-04-24T09:57:58;100659.22;;;10.10
79714;BMP280;69206;51.420;5.400;2023-04-24T10:00:32;100656.84;;;10.54
79714;BMP280;69206;51.420;5.400;2023-04-24T10:03:02;100661.03;;;11.10
79714;BMP280;69206;51.420;5.400;2023-04-24T10:05:36;100655.31;;;10.98
79714;BMP280;69206;51.420;5.400;2023-04-24T10:08:07;100609.13;;;10.32
79714;BMP280;69206;51.420;5.400;2023-04-24T10:10:35;100670.53;;;10.39
79714;BMP280;69206;51.420;5.400;2023-04-24T10:13:01;100654.63;;;10.31
79714;BMP280;69206;51.420;5.400;2023-04-24T10:15:28;100658.41;;;10.19
79714;BMP280;69206;51.420;5.400;2023-04-24T10:17:53;100668.47;;;10.33
79714;BMP280;69206;51.420;5.400;2023-04-24T10:20:23;100672.03;;;10.13
79714;BMP280;69206;51.420;5.400;2023-04-24T10:22:52;100670.22;;;10.42
79714;BMP280;69206;51.420;5.400;2023-04-24T10:25:22;100680.00;;;10.59
79714;BMP280;69206;51.420;5.400;2023-04-24T10:27:49;100673.69;;;10.52
79714;BMP280;69206;51.420;5.400;2023-04-24T10:30:16;100677.97;;;10.53
79714;BMP280;69206;51.420;5.400;2023-04-24T10:32:41;100682.56;;;10.32
79714;BMP280;69206;51.420;5.400;2023-04-24T10:35:08;100675.91;;;10.37
79714;BMP280;69206;51.420;5.400;2023-04-24T10:37:39;100682.22;;;10.54
79714;BMP280;69206;51.420;5.400;2023-04-24T10:40:06;100700.19;;;10.49
79714;BMP280;69206;51.420;5.400;2023-04-24T10:42:33;100699.09;;;10.42
79714;BMP280;69206;51.420;5.400;2023-04-24T10:44:58;100698.53;;;10.38
79714;BMP280;69206;51.420;5.400;2023-04-24T10:47:27;100699.38;;;10.39
79714;BMP280;69206;51.420;5.400;2023-04-24T10:49:52;100708.47;;;10.54
79714;BMP280;69206;51.420;5.400;2023-04-24T10:52:18;100703.34;;;10.62
79714;BMP280;69206;51.420;5.400;2023-04-24T10:54:45;100720.31;;;10.67
79714;BMP280;69206;51.420;5.400;2023-04-24T11:00:09;100728.03;;;10.78
79714;BMP280;69206;51.420;5.400;2023-04-24T11:02:39;100720.22;;;10.59
79714;BMP280;69206;51.420;5.400;2023-04-24T11:05:06;100703.53;;;10.32
79714;BMP280;69206;51.420;5.400;2023-04-24T11:10:38;100725.97;;;10.63
79714;BMP280;69206;51.420;5.400;2023-04-24T11:13:04;100721.38;;;10.93
79714;BMP280;69206;51.420;5.400;2023-04-24T11:15:29;100725.00;;;10.82
79714;BMP280;69206;51.420;5.400;2023-04-24T11:17:55;100736.00;;;10.95
79714;BMP280;69206;51.420;5.400;2023-04-24T11:20:23;100731.56;;;11.05
79714;BMP280;69206;51.420;5.400;2023-04-24T11:22:53;100737.66;;;10.96
79714;BMP280;69206;51.420;5.400;2023-04-24T11:25:20;100746.38;;;10.97
79714;BMP280;69206;51.420;5.400;2023-04-24T11:27:47;100740.03;;;10.99
79714;BMP280;69206;51.420;5.400;2023-04-24T11:30:17;100747.34;;;10.86
79714;BMP280;69206;51.420;5.400;2023-04-24T11:32:43;100728.56;;;10.91
79714;BMP280;69206;51.420;5.400;2023-04-24T11:35:16;100754.25;;;11.33
79714;BMP280;69206;51.420;5.400;2023-04-24T11:37:43;100758.63;;;11.15
79714;BMP280;69206;51.420;5.400;2023-04-24T11:40:12;100725.13;;;11.17
79714;BMP280;69206;51.420;5.400;2023-04-24T11:42:40;100763.19;;;11.13
79714;BMP280;69206;51.420;5.400;2023-04-24T11:45:08;100769.31;;;11.31
79714;BMP280;69206;51.420;5.400;2023-04-24T11:47:34;100768.94;;;11.26
79714;BMP280;69206;51.420;5.400;2023-04-24T11:50:00;100778.00;;;11.14
79714;BMP280;69206;51.420;5.400;2023-04-24T11:52:26;100783.44;;;11.30
79714;BMP280;69206;51.420;5.400;2023-04-24T11:54:52;100775.63;;;11.21
79714;BMP280;69206;51.420;5.400;2023-04-24T11:57:21;100779.22;;;11.10
79714;BMP280;69206;51.420;5.400;2023-04-24T11:59:47;100779.66;;;10.96
79714;BMP280;69206;51.420;5.400;2023-04-24T12:02:26;100759.25;;;11.36
79714;BMP280;69206;51.420;5.400;2023-04-24T12:04:53;100785.25;;;11.66
79714;BMP280;69206;51.420;5.400;2023-04-24T12:07:19;100790.66;;;11.82
79714;BMP280;69206;51.420;5.400;2023-04-24T12:09:46;100800.03;;;11.67
79714;BMP280;69206;51.420;5.400;2023-04-24T12:12:13;100778.50;;;11.54
79714;BMP280;69206;51.420;5.400;2023-04-24T12:14:55;100747.66;;;11.56
79714;BMP280;69206;51.420;5.400;2023-04-24T12:17:41;100802.09;;;11.73
79714;BMP280;69206;51.420;5.400;2023-04-24T12:20:08;100808.34;;;11.63
79714;BMP280;69206;51.420;5.400;2023-04-24T12:22:48;100802.72;;;11.48
79714;BMP280;69206;51.420;5.400;2023-04-24T12:25:14;100812.63;;;11.73
79714;BMP280;69206;51.420;5.400;2023-04-24T12:27:40;100810.44;;;11.86
79714;BMP280;69206;51.420;5.400;2023-04-24T12:30:11;100782.63;;;11.66
79714;BMP280;69206;51.420;5.400;2023-04-24T12:32:41;100817.06;;;11.63
79714;BMP280;69206;51.420;5.400;2023-04-24T12:35:07;100825.16;;;11.43
79714;BMP280;69206;51.420;5.400;2023-04-24T12:37:33;100824.16;;;11.53
79714;BMP280;69206;51.420;5.400;2023-04-24T12:40:07;100822.59;;;11.60
79714;BMP280;69206;51.420;5.400;2023-04-24T12:42:33;100838.91;;;11.64
79714;BMP280;69206;51.420;5.400;2023-04-24T12:45:01;100835.72;;;11.70
79714;BMP280;69206;51.420;5.400;2023-04-24T12:47:29;100831.78;;;11.56
79714;BMP280;69206;51.420;5.400;2023-04-24T12:49:54;100810.13;;;11.72
79714;BMP280;69206;51.420;5.400;2023-04-24T12:52:24;100834.78;;;12.15
79714;BMP280;69206;51.420;5.400;2023-04-24T12:54:53;100818.50;;;12.02
79714;BMP280;69206;51.420;5.400;2023-04-24T12:57:19;100841.75;;;12.07
79714;BMP280;69206;51.420;5.400;2023-04-24T12:59:44;100842.19;;;11.75
79714;BMP280;69206;51.420;5.400;2023-04-24T13:02:11;100841.06;;;12.05
79714;BMP280;69206;51.420;5.400;2023-04-24T13:04:36;100838.56;;;12.03
79714;BMP280;69206;51.420;5.400;2023-04-24T13:07:02;100841.91;;;12.05
79714;BMP280;69206;51.420;5.400;2023-04-24T13:09:28;100837.31;;;12.07
79714;BMP280;69206;51.420;5.400;2023-04-24T13:11:54;100837.84;;;12.11
79714;BMP280;69206;51.420;5.400;2023-04-24T13:14:19;100853.41;;;12.04
79714;BMP280;69206;51.420;5.400;2023-04-24T13:16:45;100850.38;;;11.99
79714;BMP280;69206;51.420;5.400;2023-04-24T13:19:10;100841.69;;;12.16
79714;BMP280;69206;51.420;5.400;2023-04-24T13:21:36;100862.31;;;11.94
79714;BMP280;69206;51.420;5.400;2023-04-24T13:24:02;100845.25;;;11.98
79714;BMP280;69206;51.420;5.400;2023-04-24T13:26:29;100857.22;;;12.10
79714;BMP280;69206;51.420;5.400;2023-04-24T13:28:55;100864.78;;;11.95
79714;BMP280;69206;51.420;5.400;2023-04-24T13:31:21;100861.88;;;11.71
79714;BMP280;69206;51.420;5.400;2023-04-24T13:33:46;100856.88;;;11.68
79714;BMP280;69206;51.420;5.400;2023-04-24T13:36:11;100857.06;;;11.57
79714;BMP280;69206;51.420;5.400;2023-04-24T13:38:37;100850.31;;;11.45
79714;BMP280;69206;51.420;5.400;2023-04-24T13:41:02;100852.56;;;11.40
79714;BMP280;69206;51.420;5.400;2023-04-24T13:43:28;100867.81;;;11.27
79714;BMP280;69206;51.420;5.400;2023-04-24T13:45:53;100859.09;;;11.36
79714;BMP280;69206;51.420;5.400;2023-04-24T13:48:19;100865.31;;;11.35
79714;BMP280;69206;51.420;5.400;2023-04-24T13:50:44;100856.78;;;11.60
79714;BMP280;69206;51.420;5.400;2023-04-24T13:53:10;100862.13;;;11.68
79714;BMP280;69206;51.420;5.400;2023-04-24T13:55:35;100864.50;;;11.98
79714;BMP280;69206;51.420;5.400;2023-04-24T13:58:01;100849.16;;;11.94
79714;BMP280;69206;51.420;5.400;2023-04-24T14:00:27;100862.16;;;11.95
79714;BMP280;69206;51.420;5.400;2023-04-24T14:02:53;100868.91;;;11.98
79714;BMP280;69206;51.420;5.400;2023-04-24T14:05:18;100865.56;;;11.78